Time;durP1;ratioP1;P1;durP2;ratioP2;P2;SDS_P1;SDS_P2;PMS_P1;PMS_P2;Temp;Humidity;BMP_temperature;BMP_pressure;BME280_temperature;BME280_humidity;BME280_pressure;Samples;Min_cycle;Max_cycle;Signal;HPM_P1;HPM_P2
2023/08/30 03:54:49;;;;;;;8.07;4.40;;;;;;;16.00;100.00;99243.94;5896677;28;20181;-85
2023/08/30 03:58:07;;;;;;;10.77;4.93;;;;;;;16.00;100.00;99249.38;5242554;33;33241;-88
2023/08/30 04:01:28;;;;;;;10.63;4.75;;;;;;;15.98;100.00;99259.63;5242905;33;31873;-85
2023/08/30 04:04:48;;;;;;;8.98;4.68;;;;;;;16.01;100.00;99270.00;5243770;33;33497;-85
2023/08/30 04:08:01;;;;;;;8.70;5.30;;;;;;;15.98;100.00;99273.19;5241640;33;33104;-85
2023/08/30 04:11:12;;;;;;;9.05;5.72;;;;;;;16.06;100.00;99272.00;5254450;33;32967;-84
2023/08/30 04:14:18;;;;;;;9.57;5.40;;;;;;;16.14;100.00;99271.59;5243658;33;33662;-84
2023/08/30 04:17:33;;;;;;;8.77;5.93;;;;;;;16.08;100.00;99276.09;5245042;33;34403;-85
2023/08/30 04:20:36;;;;;;;8.68;5.10;;;;;;;16.12;100.00;99276.47;5231809;33;33364;-86
2023/08/30 04:23:39;;;;;;;11.07;5.75;;;;;;;16.23;100.00;99272.91;5257054;33;34133;-86
2023/08/30 04:26:42;;;;;;;9.73;5.45;;;;;;;16.21;100.00;99272.31;5245020;33;33069;-86
2023/08/30 04:29:47;;;;;;;11.20;4.80;;;;;;;16.28;100.00;99275.69;5235165;33;33234;-86
2023/08/30 04:32:50;;;;;;;11.18;5.37;;;;;;;16.32;100.00;99285.03;5245699;33;34792;-86
2023/08/30 04:35:54;;;;;;;8.82;5.12;;;;;;;16.41;100.00;99293.59;5244187;33;33596;-86
2023/08/30 04:38:57;;;;;;;11.80;6.43;;;;;;;16.37;100.00;99307.91;5242511;33;33453;-86
2023/08/30 04:42:05;;;;;;;12.05;6.37;;;;;;;16.35;100.00;99308.16;5245161;33;34543;-86
2023/08/30 04:45:09;;;;;;;10.50;5.50;;;;;;;16.39;100.00;99311.22;5263880;33;33677;-86
2023/08/30 04:48:12;;;;;;;7.72;5.20;;;;;;;16.46;100.00;99299.13;5245554;33;33670;-86
2023/08/30 04:51:17;;;;;;;11.00;5.53;;;;;;;16.53;100.00;99302.53;5235937;33;33427;-86
2023/08/30 04:54:20;;;;;;;11.38;6.37;;;;;;;16.57;100.00;99297.44;5233603;33;33433;-86
2023/08/30 04:57:23;;;;;;;9.45;5.70;;;;;;;16.54;100.00;99304.16;5245337;33;33690;-86
2023/08/30 05:00:27;;;;;;;9.55;5.75;;;;;;;16.67;100.00;99296.78;5246085;33;33106;-86
2023/08/30 05:03:29;;;;;;;10.88;6.12;;;;;;;16.66;100.00;99297.84;5232878;33;33709;-86
2023/08/30 05:06:35;;;;;;;9.77;6.32;;;;;;;16.71;100.00;99297.94;5244525;33;33341;-86
2023/08/30 05:09:40;;;;;;;10.77;5.20;;;;;;;16.69;100.00;99309.06;5243921;33;33127;-86
2023/08/30 05:12:47;;;;;;;13.00;5.97;;;;;;;16.70;100.00;99309.88;5237887;33;33447;-90
2023/08/30 05:15:50;;;;;;;12.32;5.97;;;;;;;16.77;100.00;99310.59;5250662;33;33679;-91
2023/08/30 05:18:53;;;;;;;9.27;5.68;;;;;;;16.75;100.00;99307.25;5261356;33;33949;-87
2023/08/30 05:21:56;;;;;;;9.18;5.70;;;;;;;16.79;100.00;99311.19;5249548;33;33274;-87
2023/08/30 05:24:59;;;;;;;11.82;5.43;;;;;;;16.82;100.00;99313.41;5260089;33;34488;-86
2023/08/30 05:28:02;;;;;;;8.55;5.10;;;;;;;16.76;100.00;99308.97;5261711;33;34284;-86
2023/08/30 05:31:06;;;;;;;8.45;5.22;;;;;;;16.80;100.00;99299.22;5256824;33;34370;-86
2023/08/30 05:34:10;;;;;;;11.85;6.12;;;;;;;16.82;100.00;99301.69;5256548;33;33338;-86
2023/08/30 05:37:16;;;;;;;8.73;5.00;;;;;;;16.81;100.00;99305.50;5254689;33;33781;-86
2023/08/30 05:40:19;;;;;;;10.68;6.20;;;;;;;16.81;100.00;99305.50;5243574;33;33240;-86
2023/08/30 05:43:22;;;;;;;9.73;5.87;;;;;;;16.84;100.00;99315.87;5231820;33;33545;-86
2023/08/30 05:46:25;;;;;;;9.82;5.43;;;;;;;16.89;100.00;99322.22;5226363;33;33449;-86
2023/08/30 05:49:28;;;;;;;9.65;5.20;;;;;;;17.01;100.00;99319.44;5244140;33;33575;-86
2023/08/30 05:52:32;;;;;;;9.05;5.25;;;;;;;17.15;100.00;99328.94;5231850;33;33392;-86
2023/08/30 05:55:36;;;;;;;10.02;5.00;;;;;;;17.21;100.00;99327.94;5255166;33;34202;-86
2023/08/30 05:58:40;;;;;;;8.80;4.95;;;;;;;17.34;100.00;99328.66;5242707;33;32054;-86
2023/08/30 06:01:44;;;;;;;8.55;5.70;;;;;;;17.38;100.00;99330.66;5236728;33;33446;-86
2023/08/30 06:04:47;;;;;;;9.93;5.55;;;;;;;17.48;100.00;99319.09;5230988;33;33548;-86
2023/08/30 06:07:51;;;;;;;10.25;6.57;;;;;;;17.62;100.00;99319.59;5255960;33;33386;-86
2023/08/30 06:10:55;;;;;;;10.48;5.68;;;;;;;17.61;100.00;99307.06;5256404;33;33863;-86
2023/08/30 06:13:59;;;;;;;9.70;5.50;;;;;;;17.66;100.00;99312.56;5255428;33;32270;-86
2023/08/30 06:17:02;;;;;;;9.52;5.12;;;;;;;17.76;100.00;99315.44;5255308;33;34082;-86
2023/08/30 06:20:05;;;;;;;10.57;5.82;;;;;;;17.85;100.00;99319.41;5242806;33;33680;-87
2023/08/30 06:23:10;;;;;;;9.23;5.53;;;;;;;17.86;100.00;99322.94;5242799;33;33449;-87
2023/08/30 06:26:12;;;;;;;9.70;5.45;;;;;;;18.13;100.00;99331.19;5242679;33;33144;-87
2023/08/30 06:29:16;;;;;;;11.15;5.87;;;;;;;18.33;100.00;99342.34;5255070;33;32842;-85
2023/08/30 06:32:19;;;;;;;10.07;5.40;;;;;;;18.53;100.00;99327.31;5231711;33;33291;-84
2023/08/30 06:35:23;;;;;;;9.15;5.20;;;;;;;18.53;100.00;99333.59;5231392;33;33501;-84
2023/08/30 06:38:28;;;;;;;6.78;5.10;;;;;;;18.60;100.00;99333.38;5242810;33;33078;-84
2023/08/30 06:41:31;;;;;;;7.22;5.30;;;;;;;18.56;100.00;99348.59;5235357;33;33381;-85
2023/08/30 06:44:34;;;;;;;9.35;5.53;;;;;;;18.70;100.00;99355.31;5261355;33;32945;-87
2023/08/30 06:47:39;;;;;;;8.35;4.93;;;;;;;18.79;100.00;99351.06;5254417;33;33387;-85
2023/08/30 06:50:43;;;;;;;8.38;5.12;;;;;;;18.81;100.00;99348.09;5243618;33;34246;-85
2023/08/30 06:53:47;;;;;;;8.30;5.60;;;;;;;18.65;100.00;99338.06;5233169;33;34648;-85
2023/08/30 06:57:00;;;;;;;6.18;4.62;;;;;;;18.40;100.00;99335.88;5257982;33;33397;-85
2023/08/30 07:00:07;;;;;;;8.10;5.15;;;;;;;18.54;100.00;99332.53;5259298;33;33681;-85
2023/08/30 07:03:12;;;;;;;8.00;4.87;;;;;;;18.41;100.00;99332.91;5234535;33;33659;-85
2023/08/30 07:06:16;;;;;;;7.50;5.18;;;;;;;18.67;100.00;99336.75;5244762;33;33021;-91
2023/08/30 07:09:19;;;;;;;7.62;4.75;;;;;;;18.84;100.00;99339.41;5242574;33;33203;-90
2023/08/30 07:12:28;;;;;;;7.22;4.47;;;;;;;19.53;100.00;99348.72;5256831;33;33094;-86
2023/08/30 07:15:33;;;;;;;7.47;4.80;;;;;;;19.94;100.00;99358.03;5243655;33;33338;-87
2023/08/30 07:18:36;;;;;;;5.55;4.28;;;;;;;19.75;100.00;99341.25;5256097;33;33002;-86
2023/08/30 07:21:39;;;;;;;7.62;5.10;;;;;;;19.62;100.00;99336.22;5262148;33;33572;-87
2023/08/30 07:24:43;;;;;;;7.30;4.82;;;;;;;19.65;100.00;99343.91;5235298;33;34311;-86
2023/08/30 07:27:47;;;;;;;6.07;5.10;;;;;;;19.60;100.00;99339.22;5257967;33;34320;-87
2023/08/30 07:30:50;;;;;;;5.00;4.40;;;;;;;19.64;100.00;99340.34;5254889;33;32941;-87
2023/08/30 07:33:53;;;;;;;7.12;4.22;;;;;;;19.84;100.00;99352.50;5241697;33;33240;-87
2023/08/30 07:36:58;;;;;;;6.85;4.62;;;;;;;19.96;100.00;99347.66;5254537;33;33303;-86
2023/08/30 07:40:04;;;;;;;6.78;4.72;;;;;;;20.11;100.00;99349.66;5258911;33;32985;-86
2023/08/30 07:43:09;;;;;;;8.68;5.45;;;;;;;20.23;100.00;99350.25;5254222;33;33572;-86
2023/08/30 07:46:13;;;;;;;7.85;4.82;;;;;;;20.16;100.00;99361.44;5241150;33;34462;-86
2023/08/30 07:49:17;;;;;;;7.90;5.22;;;;;;;20.35;100.00;99369.16;5229952;33;34029;-87
2023/08/30 07:52:22;;;;;;;7.97;5.40;;;;;;;20.17;100.00;99370.44;5241860;33;34363;-86
2023/08/30 07:55:50;;;;;;;5.57;4.47;;;;;;;20.02;100.00;99370.38;5239939;33;33458;-86
2023/08/30 07:58:54;;;;;;;7.20;4.62;;;;;;;20.02;100.00;99373.91;5255057;33;34178;-86
2023/08/30 08:01:57;;;;;;;8.82;5.30;;;;;;;20.06;100.00;99372.28;5229340;33;33304;-86
2023/08/30 08:05:00;;;;;;;7.28;5.32;;;;;;;20.28;100.00;99374.88;5231002;33;33884;-86
2023/08/30 08:08:03;;;;;;;6.50;5.20;;;;;;;20.23;100.00;99377.56;5254420;33;33024;-86
2023/08/30 08:11:06;;;;;;;6.95;4.87;;;;;;;20.02;100.00;99373.91;5241916;33;34381;-86
2023/08/30 08:14:12;;;;;;;8.25;4.65;;;;;;;20.13;100.00;99378.34;5229404;33;33043;-86
2023/08/30 08:17:15;;;;;;;6.43;5.10;;;;;;;20.65;100.00;99375.84;5241806;33;33890;-86
2023/08/30 08:20:18;;;;;;;6.68;5.12;;;;;;;20.74;100.00;99383.28;5243290;33;31863;-86
2023/08/30 08:23:21;;;;;;;9.57;5.85;;;;;;;20.95;100.00;99392.38;5231689;33;33861;-86
2023/08/30 08:26:25;;;;;;;9.65;5.75;;;;;;;21.08;100.00;99391.00;5244133;33;33314;-86
2023/08/30 08:29:28;;;;;;;7.97;5.37;;;;;;;20.80;100.00;99390.41;5256738;33;33943;-86
2023/08/30 08:32:31;;;;;;;9.05;5.32;;;;;;;20.75;100.00;99386.84;5244265;33;33498;-86
2023/08/30 08:35:34;;;;;;;6.30;4.97;;;;;;;20.75;100.00;99384.94;5243663;33;34142;-86
2023/08/30 08:38:38;;;;;;;7.53;4.85;;;;;;;20.76;100.00;99388.47;5256207;33;33713;-86
2023/08/30 08:41:43;;;;;;;7.03;5.07;;;;;;;20.83;100.00;99392.63;5232598;33;32930;-86
2023/08/30 08:44:54;;;;;;;6.62;4.93;;;;;;;21.23;100.00;99395.69;5233418;33;33374;-86
2023/08/30 08:47:57;;;;;;;7.72;5.28;;;;;;;21.24;100.00;99389.13;5243443;33;32848;-90
2023/08/30 08:51:01;;;;;;;8.70;5.10;;;;;;;21.50;100.00;99385.34;5256780;33;35097;-90
2023/08/30 08:54:05;;;;;;;6.18;4.93;;;;;;;21.57;100.00;99386.97;5245114;33;33338;-87
2023/08/30 08:57:08;;;;;;;10.60;4.82;;;;;;;21.53;100.00;99383.97;5257651;33;34421;-87
2023/08/30 09:00:12;;;;;;;9.25;5.22;;;;;;;21.45;100.00;99388.06;5257016;33;33562;-86
2023/08/30 09:03:18;;;;;;;6.47;5.00;;;;;;;21.47;100.00;99399.59;5233953;33;32842;-86
2023/08/30 09:06:23;;;;;;;5.87;4.62;;;;;;;21.41;100.00;99397.09;5228195;34;33499;-86
2023/08/30 09:09:26;;;;;;;7.45;4.50;;;;;;;21.34;100.00;99400.09;5242674;33;34197;-86
2023/08/30 09:12:33;;;;;;;7.70;4.62;;;;;;;21.74;100.00;99391.06;5242090;33;33039;-85
2023/08/30 09:15:39;;;;;;;7.75;4.93;;;;;;;22.01;100.00;99392.66;5254676;33;33283;-86
2023/08/30 09:18:42;;;;;;;5.60;4.78;;;;;;;22.02;100.00;99396.22;5243684;33;33105;-86
2023/08/30 09:21:59;;;;;;;6.93;4.62;;;;;;;21.98;100.00;99397.91;5238955;33;33454;-86
2023/08/30 09:25:03;;;;;;;7.75;5.18;;;;;;;21.67;100.00;99409.69;5256163;33;33115;-86
2023/08/30 09:28:06;;;;;;;6.85;4.90;;;;;;;21.33;100.00;99412.13;5256197;33;33465;-86
2023/08/30 09:31:18;;;;;;;7.30;4.95;;;;;;;21.04;100.00;99418.12;5248832;33;34081;-86
2023/08/30 09:34:25;;;;;;;7.18;4.87;;;;;;;21.24;100.00;99416.50;5254273;33;33389;-86
2023/08/30 09:37:28;;;;;;;6.32;4.70;;;;;;;20.74;100.00;99418.03;5242175;33;33834;-86
2023/08/30 09:40:33;;;;;;;6.32;4.37;;;;;;;20.97;100.00;99417.56;5224024;34;34333;-86
2023/08/30 09:43:43;;;;;;;6.60;4.55;;;;;;;21.61;100.00;99413.53;5221385;33;33430;-86
2023/08/30 09:46:53;;;;;;;6.97;4.28;;;;;;;21.99;100.00;99418.72;5254502;33;34861;-86
2023/08/30 09:50:00;;;;;;;6.25;4.15;;;;;;;22.33;98.65;99416.22;5243161;33;34176;-86
2023/08/30 09:53:09;;;;;;;7.85;4.35;;;;;;;22.54;97.27;99426.00;5254929;33;33099;-86
2023/08/30 09:56:14;;;;;;;7.37;4.12;;;;;;;22.46;97.72;99428.50;5242547;33;33471;-86
2023/08/30 09:59:17;;;;;;;7.37;4.25;;;;;;;22.83;95.43;99430.81;5241787;33;32991;-86
2023/08/30 10:02:20;;;;;;;5.97;4.12;;;;;;;22.25;96.46;99431.28;5244090;33;33785;-86
2023/08/30 10:05:23;;;;;;;6.35;3.85;;;;;;;21.62;100.00;99439.03;5232158;33;33042;-85
2023/08/30 10:08:30;;;;;;;6.22;4.10;;;;;;;21.16;100.00;99441.69;5221048;33;33301;-86
2023/08/30 10:11:38;;;;;;;4.47;3.33;;;;;;;21.17;100.00;99437.84;5243953;33;33542;-90
2023/08/30 10:14:41;;;;;;;6.30;4.22;;;;;;;21.36;100.00;99430.78;5245327;33;34013;-87
2023/08/30 10:17:46;;;;;;;6.35;4.25;;;;;;;21.28;100.00;99432.09;5264846;33;34081;-88
2023/08/30 10:20:52;;;;;;;5.50;3.83;;;;;;;21.73;100.00;99430.53;5266640;33;34912;-87
2023/08/30 10:23:58;;;;;;;5.05;3.65;;;;;;;21.84;100.00;99428.59;5255334;33;33671;-86
2023/08/30 10:27:04;;;;;;;6.93;3.58;;;;;;;21.77;100.00;99435.47;5255301;33;33769;-86
2023/08/30 10:30:11;;;;;;;3.87;3.17;;;;;;;21.63;100.00;99433.25;5255334;33;33312;-86
2023/08/30 10:33:14;;;;;;;6.55;3.78;;;;;;;21.60;100.00;99438.47;5255886;33;33380;-86
2023/08/30 10:36:24;;;;;;;5.20;3.58;;;;;;;21.79;100.00;99427.78;5242748;33;34242;-86
2023/08/30 10:39:35;;;;;;;5.35;3.90;;;;;;;21.95;100.00;99432.97;5256477;33;33366;-86
2023/08/30 10:42:38;;;;;;;4.68;3.28;;;;;;;22.31;100.00;99427.44;5253196;33;33597;-86
2023/08/30 10:45:41;;;;;;;4.65;3.22;;;;;;;22.70;98.20;99420.44;5231852;33;34106;-86
2023/08/30 10:48:44;;;;;;;6.37;3.85;;;;;;;22.84;96.71;99415.97;5238026;33;33871;-86
2023/08/30 10:51:58;;;;;;;5.47;3.70;;;;;;;22.74;96.87;99432.50;5244116;33;32966;-86
2023/08/30 10:55:08;;;;;;;4.50;3.58;;;;;;;22.85;97.22;99431.38;5243540;33;33027;-86
2023/08/30 10:58:13;;;;;;;3.97;3.30;;;;;;;22.85;95.23;99425.88;5250000;33;33483;-86
2023/08/30 11:01:17;;;;;;;4.53;3.10;;;;;;;23.28;91.97;99429.78;5266144;33;32812;-86
2023/08/30 11:04:21;;;;;;;3.65;3.33;;;;;;;22.90;94.25;99423.09;5232495;33;33425;-86
2023/08/30 11:07:25;;;;;;;4.43;3.53;;;;;;;23.61;90.69;99423.75;5241679;33;34238;-86
2023/08/30 11:10:28;;;;;;;4.62;3.10;;;;;;;23.63;89.70;99422.34;5254345;33;34087;-86
2023/08/30 11:13:31;;;;;;;5.30;3.28;;;;;;;23.44;89.74;99421.41;5230903;33;32952;-86
2023/08/30 11:16:37;;;;;;;4.97;3.22;;;;;;;23.55;89.76;99414.75;5227469;33;32980;-87
2023/08/30 11:19:40;;;;;;;2.95;2.60;;;;;;;24.10;86.61;99415.38;5242099;33;33825;-86
2023/08/30 11:22:45;;;;;;;4.45;2.90;;;;;;;24.48;85.78;99412.75;5242399;33;34221;-86
2023/08/30 11:25:51;;;;;;;4.43;2.40;;;;;;;24.39;82.76;99407.03;5251924;33;33412;-86
2023/08/30 11:28:54;;;;;;;3.03;2.35;;;;;;;24.43;84.42;99421.09;5229977;33;34367;-86
2023/08/30 11:31:57;;;;;;;2.85;2.42;;;;;;;24.86;80.20;99412.81;5245126;33;33663;-86
2023/08/30 11:35:00;;;;;;;2.40;2.20;;;;;;;25.47;77.86;99416.63;5255384;33;33284;-86
2023/08/30 11:38:03;;;;;;;2.25;2.05;;;;;;;26.78;72.64;99399.91;5240960;33;33205;-86
2023/08/30 11:41:06;;;;;;;5.43;2.28;;;;;;;28.46;64.24;99406.00;5240908;33;34676;-87
2023/08/30 11:44:10;;;;;;;2.58;2.37;;;;;;;28.52;64.33;99401.13;5241531;33;33433;-86
2023/08/30 11:47:27;;;;;;;3.85;2.70;;;;;;;28.24;65.54;99404.91;5253738;33;33386;-89
2023/08/30 11:50:30;;;;;;;4.00;2.42;;;;;;;27.45;66.92;99408.31;5253521;33;33319;-87
2023/08/30 11:53:35;;;;;;;3.08;2.70;;;;;;;26.54;70.58;99405.66;5237148;33;33327;-86
2023/08/30 11:56:38;;;;;;;2.90;2.65;;;;;;;25.27;75.86;99409.50;5250624;33;33285;-86
2023/08/30 11:59:41;;;;;;;2.40;2.20;;;;;;;25.59;74.48;99405.97;5234695;33;34739;-86
2023/08/30 12:02:47;;;;;;;2.55;2.35;;;;;;;26.87;70.45;99396.09;5259031;33;33419;-86
2023/08/30 12:05:50;;;;;;;4.75;2.42;;;;;;;25.86;71.98;99394.25;5229883;33;33499;-86
2023/08/30 12:08:58;;;;;;;3.92;2.80;;;;;;;25.35;74.67;99400.56;5254243;33;34191;-86
2023/08/30 12:12:11;;;;;;;;;;;;;;;24.47;80.16;99391.84;5252946;33;33971;-86
2023/08/30 12:15:15;;;;;;;3.05;2.60;;;;;;;23.33;84.67;99395.12;5240054;33;33031;-86
2023/08/30 12:18:27;;;;;;;4.03;3.00;;;;;;;22.77;88.72;99399.84;5238982;33;32938;-86
2023/08/30 12:21:39;;;;;;;3.87;2.90;;;;;;;22.84;89.92;99389.38;5239427;33;33359;-86
2023/08/30 12:24:43;;;;;;;6.78;3.10;;;;;;;22.93;89.24;99392.31;5240927;33;34949;-86
2023/08/30 12:27:47;;;;;;;4.18;2.75;;;;;;;23.37;86.99;99383.28;5228910;33;32932;-86
2023/08/30 12:30:50;;;;;;;3.33;2.70;;;;;;;24.11;80.61;99392.25;5240757;33;34390;-86
2023/08/30 12:33:54;;;;;;;5.97;3.00;;;;;;;23.98;81.93;99392.91;5239092;33;33040;-86
2023/08/30 12:36:57;;;;;;;5.28;2.97;;;;;;;23.92;82.31;99388.59;5261566;33;33122;-86
2023/08/30 12:40:00;;;;;;;2.83;2.00;;;;;;;23.82;82.58;99391.44;5223779;33;35229;-86
2023/08/30 12:43:03;;;;;;;4.12;2.67;;;;;;;23.71;83.29;99391.53;5233645;33;33309;-86
2023/08/30 12:46:07;;;;;;;3.12;2.50;;;;;;;23.76;83.26;99387.94;5240871;33;35413;-86
2023/08/30 12:49:10;;;;;;;3.03;2.40;;;;;;;24.13;80.28;99387.28;5253395;33;33298;-86
2023/08/30 12:52:13;;;;;;;2.90;2.62;;;;;;;24.55;78.55;99382.94;5242896;33;33832;-86
2023/08/30 12:55:17;;;;;;;3.42;2.60;;;;;;;25.08;76.59;99377.25;5245561;33;33085;-86
2023/08/30 12:58:20;;;;;;;2.53;2.33;;;;;;;27.07;67.37;99358.09;5235348;33;34390;-86
2023/08/30 13:01:24;;;;;;;3.00;2.50;;;;;;;26.87;67.40;99362.13;5255125;33;33712;-86
2023/08/30 13:04:28;;;;;;;3.67;2.22;;;;;;;26.76;66.57;99361.53;5242839;33;33315;-86
2023/08/30 13:07:31;;;;;;;5.03;2.60;;;;;;;26.83;65.46;99355.59;5232972;33;34786;-86
2023/08/30 13:10:37;;;;;;;4.47;2.05;;;;;;;27.08;65.98;99356.94;5240968;33;33153;-86
2023/08/30 13:13:40;;;;;;;2.20;2.00;;;;;;;27.18;63.67;99362.28;5223884;33;34421;-86
2023/08/30 13:16:43;;;;;;;3.28;2.12;;;;;;;28.89;58.54;99369.25;5257572;33;33005;-87
2023/08/30 13:19:46;;;;;;;1.87;1.75;;;;;;;28.65;58.66;99359.47;5231591;33;34978;-86
2023/08/30 13:22:48;;;;;;;3.92;2.10;;;;;;;29.65;55.08;99360.47;5230066;33;33369;-86
2023/08/30 13:25:51;;;;;;;2.85;2.05;;;;;;;29.49;54.63;99365.69;5254721;33;33111;-90
2023/08/30 13:28:54;;;;;;;3.08;2.08;;;;;;;29.27;55.77;99369.47;5252704;33;33825;-90
2023/08/30 13:31:57;;;;;;;2.37;2.03;;;;;;;26.44;64.52;99374.34;5217859;33;34579;-90
2023/08/30 13:35:00;;;;;;;2.15;1.95;;;;;;;25.64;69.48;99370.03;5254631;33;33022;-90
2023/08/30 13:38:04;;;;;;;3.80;2.17;;;;;;;25.68;70.85;99384.88;5255438;33;33836;-87
2023/08/30 13:41:07;;;;;;;2.05;1.85;;;;;;;27.04;64.03;99367.00;5255408;33;33390;-87
2023/08/30 13:44:10;;;;;;;3.95;1.90;;;;;;;28.22;56.74;99373.16;5243300;33;33294;-87
2023/08/30 13:47:13;;;;;;;2.95;2.08;;;;;;;29.90;52.26;99383.75;5255981;33;33417;-87
2023/08/30 13:50:16;;;;;;;2.30;2.00;;;;;;;30.06;52.32;99382.03;5242917;33;33344;-87
2023/08/30 13:53:20;;;;;;;1.73;1.62;;;;;;;31.42;48.54;99377.53;5213696;33;33424;-86
2023/08/30 13:56:23;;;;;;;2.53;1.83;;;;;;;31.85;46.20;99369.53;5247503;33;34074;-86
2023/08/30 13:59:28;;;;;;;1.77;1.67;;;;;;;30.27;49.64;99379.41;5242723;33;33299;-84
2023/08/30 14:02:32;;;;;;;1.90;1.67;;;;;;;28.99;53.15;99373.66;5243023;33;33266;-84
2023/08/30 14:05:35;;;;;;;2.65;2.00;;;;;;;28.01;57.07;99372.91;5232155;33;32947;-84
2023/08/30 14:08:38;;;;;;;1.70;1.60;;;;;;;26.92;60.48;99371.13;5219247;33;34004;-84
2023/08/30 14:11:41;;;;;;;2.10;1.98;;;;;;;25.98;63.48;99385.47;5255306;33;33590;-86
2023/08/30 14:14:44;;;;;;;2.42;2.22;;;;;;;25.26;67.04;99389.41;5230953;33;33294;-86
2023/08/30 14:17:47;;;;;;;2.50;2.30;;;;;;;25.02;68.23;99389.47;5240298;33;33266;-86
2023/08/30 14:20:50;;;;;;;2.10;1.90;;;;;;;25.20;68.62;99393.38;5241205;33;33233;-86
2023/08/30 14:23:53;;;;;;;2.22;2.03;;;;;;;24.78;69.38;99392.28;5259538;33;33916;-86
2023/08/30 14:26:56;;;;;;;2.20;2.00;;;;;;;24.08;73.86;99392.81;5259554;33;33961;-85
2023/08/30 14:30:00;;;;;;;2.47;2.20;;;;;;;23.54;77.01;99396.59;5241151;33;33757;-85
2023/08/30 14:33:03;;;;;;;2.10;1.90;;;;;;;23.87;76.06;99399.63;5246773;33;33440;-85
2023/08/30 14:36:10;;;;;;;3.55;2.10;;;;;;;23.90;75.36;99402.62;5244263;33;34695;-85
2023/08/30 14:39:13;;;;;;;4.43;2.30;;;;;;;23.22;78.89;99400.69;5238509;33;33298;-85
2023/08/30 14:42:16;;;;;;;2.40;2.20;;;;;;;22.75;81.22;99403.97;5226190;34;33187;-85
2023/08/30 14:45:19;;;;;;;2.28;2.08;;;;;;;22.51;84.11;99401.88;5214193;33;33108;-85
2023/08/30 14:48:21;;;;;;;3.95;2.47;;;;;;;22.00;86.29;99410.22;5214012;34;33493;-85
2023/08/30 14:51:24;;;;;;;2.62;2.42;;;;;;;21.84;88.06;99414.87;5225361;34;33870;-84
2023/08/30 14:54:27;;;;;;;2.30;2.05;;;;;;;21.60;89.40;99425.59;5225220;34;34025;-83
2023/08/30 14:57:30;;;;;;;2.67;2.00;;;;;;;21.54;89.79;99418.47;5213526;34;33802;-83
2023/08/30 15:00:33;;;;;;;2.40;2.20;;;;;;;21.33;93.68;99425.81;5225195;34;33225;-83
2023/08/30 15:03:36;;;;;;;2.25;2.00;;;;;;;21.19;93.17;99425.53;5225131;34;33101;-83
2023/08/30 15:06:40;;;;;;;2.33;2.12;;;;;;;20.94;94.91;99425.47;5237506;34;33961;-83
2023/08/30 15:09:42;;;;;;;4.82;2.60;;;;;;;20.78;94.39;99435.53;5224981;34;34477;-83
2023/08/30 15:12:45;;;;;;;2.37;2.10;;;;;;;20.72;95.64;99425.69;5213638;34;33145;-83
2023/08/30 15:15:48;;;;;;;2.30;1.70;;;;;;;20.66;95.05;99419.38;5224794;33;33247;-83
2023/08/30 15:18:51;;;;;;;1.73;1.62;;;;;;;20.55;96.54;99423.97;5216215;34;281251;-83
2023/08/30 15:21:54;;;;;;;2.00;1.75;;;;;;;20.37;97.27;99424.41;5224422;34;34106;-83
2023/08/30 15:24:57;;;;;;;2.17;1.70;;;;;;;20.41;97.99;99424.69;5213522;33;33293;-83
2023/08/30 15:28:00;;;;;;;2.62;2.05;;;;;;;20.38;99.96;99426.03;5212836;34;33105;-84
2023/08/30 15:31:03;;;;;;;2.20;2.00;;;;;;;20.32;98.98;99421.63;5213180;34;33083;-83
2023/08/30 15:34:05;;;;;;;2.25;1.50;;;;;;;20.12;100.00;99417.72;5224433;34;33586;-83
2023/08/30 15:37:12;;;;;;;1.60;1.50;;;;;;;20.19;100.00;99411.19;5201965;34;33396;-83
2023/08/30 15:40:15;;;;;;;2.12;1.60;;;;;;;20.29;100.00;99412.03;5246012;34;33364;-83
2023/08/30 15:43:17;;;;;;;1.00;1.00;;;;;;;20.29;100.00;99422.16;5215180;34;33542;-83
2023/08/30 15:46:21;;;;;;;1.50;1.25;;;;;;;20.29;100.00;99433.91;5226899;33;33393;-86
2023/08/30 15:49:24;;;;;;;1.48;1.37;;;;;;;20.18;100.00;99432.22;5230599;34;34306;-87
2023/08/30 15:52:26;;;;;;;1.40;1.30;;;;;;;20.17;100.00;99433.31;5237243;34;33250;-88
2023/08/30 15:55:30;;;;;;;1.40;1.30;;;;;;;20.20;100.00;99442.88;5213529;34;34099;-87
2023/08/30 15:58:34;;;;;;;1.60;1.30;;;;;;;20.16;100.00;99443.41;5236983;34;33405;-84
2023/08/30 16:01:38;;;;;;;1.70;1.27;;;;;;;20.20;100.00;99435.50;5202287;34;32977;-84
